Time;durP1;ratioP1;P1;durP2;ratioP2;P2;SDS_P1;SDS_P2;PMS_P1;PMS_P2;Temp;Humidity;BMP_temperature;BMP_pressure;BME280_temperature;BME280_humidity;BME280_pressure;Samples;Min_cycle;Max_cycle;Signal;HPM_P1;HPM_P2
2022/11/05 00:10:43;;;;;;;13.73;7.03;;;8.30;99.90;;;;;;5036834;28;20189;-91
2022/11/05 00:19:06;;;;;;;12.23;7.57;;;8.40;99.90;;;;;;5035932;28;20252;-91
2022/11/05 00:27:12;;;;;;;12.43;7.37;;;8.10;99.90;;;;;;5021685;28;20194;-92
2022/11/05 00:29:40;;;;;;;11.20;7.77;;;8.10;99.90;;;;;;5036753;28;20222;-90
2022/11/05 00:32:09;;;;;;;11.57;7.40;;;8.00;99.90;;;;;;5036972;28;20254;-92
2022/11/05 00:34:42;;;;;;;12.63;7.17;;;8.00;99.90;;;;;;5036743;28;20202;-92
2022/11/05 00:37:12;;;;;;;11.73;7.33;;;8.00;99.90;;;;;;5036556;28;20199;-91
2022/11/05 00:39:42;;;;;;;11.63;7.90;;;8.00;99.90;;;;;;5036750;28;20215;-92
2022/11/05 00:45:03;;;;;;;15.48;10.35;;;7.90;99.90;;;;;;5035671;28;20924;-92
2022/11/05 00:50:43;;;;;;;17.13;7.63;;;7.90;99.90;;;;;;5036409;28;20195;-92
2022/11/05 00:53:17;;;;;;;12.27;7.87;;;7.80;99.90;;;;;;5035994;28;20568;-91
2022/11/05 00:55:47;;;;;;;11.07;7.13;;;7.80;99.90;;;;;;5035923;28;20211;-91
2022/11/05 00:58:16;;;;;;;12.63;7.67;;;7.70;99.90;;;;;;5036705;28;20278;-93
2022/11/05 01:00:50;;;;;;;13.27;7.23;;;7.70;99.90;;;;;;5036112;28;20192;-92
2022/11/05 01:03:21;;;;;;;10.63;7.30;;;7.60;99.90;;;;;;5036281;28;20226;-92
2022/11/05 01:05:52;;;;;;;10.27;7.23;;;7.60;99.90;;;;;;5035910;28;20213;-92
2022/11/05 01:08:22;;;;;;;12.57;7.90;;;7.60;99.90;;;;;;5036006;28;20647;-91
2022/11/05 01:10:53;;;;;;;11.47;7.47;;;7.60;99.90;;;;;;5035836;28;20214;-92
2022/11/05 01:13:22;;;;;;;19.42;9.65;;;7.50;99.90;;;;;;5035319;28;20807;-92
2022/11/05 01:15:55;;;;;;;11.63;8.10;;;7.70;99.90;;;;;;5035913;28;20231;-91
2022/11/05 01:18:25;;;;;;;11.67;6.83;;;7.60;99.90;;;;;;5035771;28;20216;-91
2022/11/05 01:20:58;;;;;;;14.70;7.50;;;7.50;99.90;;;;;;5035420;28;20697;-90
2022/11/05 01:23:32;;;;;;;10.80;7.37;;;7.50;99.90;;;;;;5035807;28;20231;-91
2022/11/05 01:26:05;;;;;;;11.67;7.80;;;7.40;99.90;;;;;;5035478;28;20214;-92
2022/11/05 01:28:38;;;;;;;11.53;7.57;;;7.30;99.90;;;;;;5035846;28;20624;-91
2022/11/05 01:31:10;;;;;;;12.73;7.30;;;7.40;99.90;;;;;;5035406;28;20654;-92
2022/11/05 01:33:40;;;;;;;10.47;6.97;;;7.40;99.90;;;;;;5035535;28;20207;-91
2022/11/05 01:36:09;;;;;;;12.97;7.33;;;7.40;99.90;;;;;;5035461;28;20207;-90
2022/11/05 01:38:39;;;;;;;9.43;7.63;;;7.40;99.90;;;;;;5034914;28;20211;-91
2022/11/05 01:41:12;;;;;;;12.23;7.57;;;7.40;99.90;;;;;;5035255;28;20207;-90
2022/11/05 01:43:50;;;;;;;10.00;7.40;;;7.30;99.90;;;;;;5035318;28;20729;-93
2022/11/05 01:46:23;;;;;;;12.23;7.53;;;7.30;99.90;;;;;;5035315;28;20241;-92
2022/11/05 01:49:06;;;;;;;11.17;7.13;;;7.30;99.90;;;;;;5035349;28;20199;-92
2022/11/05 01:51:37;;;;;;;10.40;7.87;;;7.20;99.90;;;;;;5035529;28;20196;-93
2022/11/05 01:54:14;;;;;;;11.53;6.97;;;7.20;99.90;;;;;;5035359;28;20643;-91
2022/11/05 01:56:46;;;;;;;11.10;7.47;;;7.10;99.90;;;;;;5035729;28;20643;-91
2022/11/05 01:59:23;;;;;;;12.27;7.90;;;7.10;99.90;;;;;;5034980;28;20199;-92
2022/11/05 02:01:56;;;;;;;14.47;8.27;;;7.10;99.90;;;;;;5035222;28;20206;-91
2022/11/05 02:04:31;;;;;;;13.63;8.50;;;7.10;99.90;;;;;;5034448;28;20215;-93
2022/11/05 02:07:02;;;;;;;11.20;8.57;;;7.00;99.90;;;;;;5034725;28;20199;-93
2022/11/05 02:09:42;;;;;;;18.40;9.10;;;7.00;99.90;;;;;;5035106;28;20215;-93
2022/11/05 02:12:15;;;;;;;19.85;13.30;;;6.90;99.90;;;;;;5033831;28;20894;-93
2022/11/05 02:14:47;;;;;;;24.00;11.07;;;7.10;99.90;;;;;;5035185;28;20195;-92
2022/11/05 02:17:28;;;;;;;14.77;9.50;;;7.10;99.90;;;;;;5034776;28;20223;-91
2022/11/05 02:20:22;;;;;;;13.53;9.33;;;7.10;99.90;;;;;;5034769;28;20207;-91
2022/11/05 02:23:44;;;;;;;15.93;9.33;;;7.00;99.90;;;;;;5032049;28;20238;-92
2022/11/05 02:26:52;;;;;;;14.23;8.50;;;6.90;99.90;;;;;;5034492;28;20203;-93
2022/11/05 02:29:52;;;;;;;12.07;9.33;;;6.80;99.90;;;;;;5034859;28;20221;-93
2022/11/05 02:32:29;;;;;;;13.77;9.43;;;6.80;99.90;;;;;;5021534;28;20297;-91
2022/11/05 02:35:12;;;;;;;16.40;9.77;;;6.80;99.90;;;;;;5034121;28;20198;-94
2022/11/05 02:37:53;;;;;;;16.07;10.00;;;6.70;99.90;;;;;;5034507;28;20206;-91
2022/11/05 02:40:33;;;;;;;18.50;10.43;;;6.80;99.90;;;;;;5034179;28;20206;-93
2022/11/05 02:43:15;;;;;;;20.53;14.60;;;6.90;99.90;;;;;;5033706;28;20451;-93
2022/11/05 02:45:52;;;;;;;19.20;12.17;;;6.80;99.90;;;;;;5034548;28;20226;-93
2022/11/05 02:48:29;;;;;;;21.60;11.57;;;6.90;99.90;;;;;;5034708;28;20208;-93
2022/11/05 02:51:08;;;;;;;21.80;12.00;;;6.90;99.90;;;;;;5034256;28;20191;-93
2022/11/05 02:53:47;;;;;;;15.40;11.17;;;6.90;99.90;;;;;;5034312;28;20206;-91
2022/11/05 02:56:23;;;;;;;19.97;11.00;;;7.00;99.90;;;;;;5034614;28;20213;-92
2022/11/05 02:58:56;;;;;;;19.50;11.23;;;7.10;99.90;;;;;;5034280;28;20206;-91
2022/11/05 03:01:29;;;;;;;16.20;11.27;;;7.10;99.90;;;;;;5034335;28;20195;-92
2022/11/05 03:04:03;;;;;;;19.13;11.07;;;7.10;99.90;;;;;;5016579;28;20226;-90
2022/11/05 03:07:08;;;;;;;18.70;10.77;;;7.00;99.90;;;;;;5033868;28;20207;-92
2022/11/05 03:10:13;;;;;;;19.03;10.60;;;7.00;99.90;;;;;;5034105;28;20214;-91
2022/11/05 03:12:56;;;;;;;16.37;10.07;;;7.00;99.90;;;;;;5033926;28;20638;-92
2022/11/05 03:15:41;;;;;;;18.50;11.23;;;6.90;99.90;;;;;;5034277;28;20206;-91
2022/11/05 03:18:14;;;;;;;17.67;11.77;;;6.90;99.90;;;;;;5037733;28;20214;-92
2022/11/05 03:20:50;;;;;;;14.13;11.00;;;6.90;99.90;;;;;;5038033;28;20195;-90
2022/11/05 03:23:27;;;;;;;19.03;10.87;;;6.90;99.90;;;;;;5038066;28;20225;-90
2022/11/05 03:26:02;;;;;;;15.90;10.90;;;7.00;99.90;;;;;;5021436;28;20215;-90
2022/11/05 03:28:35;;;;;;;19.73;11.50;;;7.00;99.90;;;;;;5037221;28;20256;-91
2022/11/05 03:31:13;;;;;;;22.33;12.07;;;7.00;99.90;;;;;;5037683;28;20206;-91
2022/11/05 03:33:59;;;;;;;17.80;11.20;;;6.90;99.90;;;;;;5037370;28;20206;-90
2022/11/05 03:36:38;;;;;;;17.00;11.13;;;6.90;99.90;;;;;;5037731;28;20663;-91
2022/11/05 03:39:12;;;;;;;18.10;11.30;;;6.90;99.90;;;;;;5037116;28;20210;-91
2022/11/05 03:41:44;;;;;;;17.03;11.13;;;6.80;99.90;;;;;;5037509;28;20229;-94
2022/11/05 03:44:21;;;;;;;19.70;11.13;;;6.80;99.90;;;;;;5037422;28;20712;-92
2022/11/05 03:47:20;;;;;;;19.53;11.23;;;6.90;99.90;;;;;;5037498;28;20655;-91
2022/11/05 03:50:24;;;;;;;18.90;11.53;;;6.80;99.90;;;;;;5037475;28;20203;-91
2022/11/05 03:53:01;;;;;;;17.23;10.60;;;6.80;99.90;;;;;;5037265;28;20207;-92
2022/11/05 03:55:35;;;;;;;17.87;11.50;;;6.80;99.90;;;;;;5037664;28;20211;-91
2022/11/05 03:58:10;;;;;;;18.57;10.73;;;6.80;99.90;;;;;;5037032;28;20623;-93
2022/11/05 04:00:38;;;;;;;19.40;11.33;;;6.80;99.90;;;;;;5037345;28;20209;-91
2022/11/05 04:03:05;;;;;;;14.50;10.47;;;6.90;99.90;;;;;;5037061;28;20326;-93
2022/11/05 04:05:31;;;;;;;18.13;11.77;;;6.90;99.90;;;;;;5037282;28;20662;-91
2022/11/05 04:13:37;;;;;;;19.80;12.47;;;7.00;99.90;;;;;;5037516;28;20203;-93
2022/11/05 04:19:09;;;;;;;20.03;11.00;;;7.20;99.90;;;;;;5036908;28;20194;-91
2022/11/05 04:24:27;;;;;;;12.83;10.83;;;7.00;99.90;;;;;;5036490;28;20358;-91
2022/11/05 04:26:54;;;;;;;17.23;11.10;;;7.00;99.90;;;;;;5028927;28;20233;-92
2022/11/05 04:32:10;;;;;;;21.87;11.37;;;7.10;99.90;;;;;;5036407;28;20210;-92
2022/11/05 04:34:45;;;;;;;17.93;11.27;;;7.10;99.90;;;;;;5036861;28;20199;-91
2022/11/05 04:37:18;;;;;;;19.17;10.67;;;7.10;99.90;;;;;;5036572;28;20233;-94
2022/11/05 04:39:47;;;;;;;16.43;11.30;;;7.10;99.90;;;;;;5019355;28;20214;-92
2022/11/05 04:42:14;;;;;;;13.77;11.03;;;7.00;99.90;;;;;;5036383;28;20215;-92
2022/11/05 04:44:44;;;;;;;18.97;10.97;;;7.00;99.90;;;;;;5019067;28;20234;-91
2022/11/05 04:47:10;;;;;;;17.10;11.03;;;7.10;99.90;;;;;;5036691;28;20211;-91
2022/11/05 04:49:40;;;;;;;18.50;11.40;;;7.00;99.90;;;;;;5036814;28;20203;-92
2022/11/05 04:52:13;;;;;;;15.03;11.00;;;7.00;99.90;;;;;;5036245;28;20207;-91
2022/11/05 04:54:47;;;;;;;20.67;11.20;;;6.80;99.90;;;;;;5037288;28;20226;-91
2022/11/05 04:57:17;;;;;;;16.27;11.37;;;6.80;99.90;;;;;;5018926;28;20207;-90
2022/11/05 04:59:47;;;;;;;15.93;11.13;;;6.70;99.90;;;;;;5036542;28;20211;-92
2022/11/05 05:02:28;;;;;;;17.87;12.40;;;6.70;99.90;;;;;;5036484;28;20203;-91
2022/11/05 05:05:01;;;;;;;18.53;11.97;;;6.70;99.90;;;;;;5036212;28;20230;-94
2022/11/05 05:07:31;;;;;;;22.33;11.50;;;6.70;99.90;;;;;;5035991;28;20214;-91
2022/11/05 05:10:02;;;;;;;13.90;11.20;;;6.60;99.90;;;;;;5036138;28;20218;-92
2022/11/05 05:12:32;;;;;;;14.70;11.53;;;6.50;99.90;;;;;;5035944;28;20665;-91
2022/11/05 05:15:00;;;;;;;19.03;11.40;;;6.50;99.90;;;;;;5036211;28;20572;-92
2022/11/05 05:17:30;;;;;;;17.93;11.20;;;6.40;99.90;;;;;;5035919;28;20234;-92
2022/11/05 05:22:50;;;;;;;18.70;11.77;;;6.50;99.90;;;;;;5035549;28;20689;-92
2022/11/05 05:25:42;;;;;;;16.47;11.07;;;6.50;99.90;;;;;;5035869;28;20210;-91
2022/11/05 05:28:09;;;;;;;19.37;11.67;;;6.50;99.90;;;;;;5035565;28;20230;-93
2022/11/05 05:30:36;;;;;;;21.83;10.80;;;6.50;99.90;;;;;;5035338;28;20219;-91
2022/11/05 05:33:08;;;;;;;17.80;11.63;;;6.40;99.90;;;;;;5035583;28;20224;-92
2022/11/05 05:35:41;;;;;;;19.50;12.70;;;6.40;99.90;;;;;;5035706;28;20257;-91
2022/11/05 05:38:08;;;;;;;23.45;14.88;;;6.30;99.90;;;;;;5034840;28;20933;-93
2022/11/05 05:40:38;;;;;;;19.03;12.77;;;6.30;99.90;;;;;;5035337;28;20213;-91
2022/11/05 05:43:12;;;;;;;17.80;12.70;;;6.30;99.90;;;;;;5035414;28;20602;-91
2022/11/05 05:45:39;;;;;;;25.93;13.63;;;6.20;99.90;;;;;;5029285;28;20207;-93
2022/11/05 05:48:06;;;;;;;29.47;12.97;;;6.30;99.90;;;;;;5011066;28;20637;-91
2022/11/05 05:50:35;;;;;;;21.07;12.60;;;6.30;99.90;;;;;;5032961;28;20203;-91
2022/11/05 05:53:02;;;;;;;20.47;12.57;;;6.30;99.90;;;;;;5034362;28;20247;-91
2022/11/05 05:55:28;;;;;;;19.43;12.00;;;6.20;99.90;;;;;;5034236;28;20646;-91
2022/11/05 05:57:55;;;;;;;23.23;12.27;;;6.20;99.90;;;;;;5034847;28;20268;-91
2022/11/05 06:00:23;;;;;;;18.73;12.60;;;6.30;99.90;;;;;;5034434;28;20199;-91
2022/11/05 06:02:50;;;;;;;18.10;12.47;;;6.20;99.90;;;;;;5034727;28;20215;-91
2022/11/05 06:05:18;;;;;;;22.80;12.87;;;6.10;99.90;;;;;;5034928;28;20207;-90
2022/11/05 06:07:45;;;;;;;17.80;12.23;;;6.10;99.90;;;;;;5020981;28;20607;-93
2022/11/05 06:10:12;;;;;;;19.83;12.43;;;6.00;99.90;;;;;;5034289;28;20207;-92
2022/11/05 06:12:38;;;;;;;23.40;12.47;;;6.10;99.90;;;;;;5033795;28;20214;-93
2022/11/05 06:15:06;;;;;;;20.70;12.33;;;6.00;99.90;;;;;;5034253;28;20207;-93
2022/11/05 06:17:34;;;;;;;18.80;12.47;;;5.90;99.90;;;;;;5033929;28;20227;-93
2022/11/05 06:20:03;;;;;;;18.97;12.67;;;5.90;99.90;;;;;;5016934;28;20207;-90
2022/11/05 06:22:30;;;;;;;16.70;11.97;;;5.80;99.90;;;;;;5034011;28;20215;-92
2022/11/05 06:24:57;;;;;;;22.47;13.13;;;5.90;99.90;;;;;;5034048;28;20678;-91
2022/11/05 06:27:24;;;;;;;19.07;13.40;;;6.00;99.90;;;;;;5033954;28;20574;-91
2022/11/05 06:29:54;;;;;;;19.77;12.67;;;6.00;99.90;;;;;;5034380;28;20198;-93
2022/11/05 06:32:50;;;;;;;17.33;12.57;;;6.00;99.90;;;;;;5033706;28;20219;-91
2022/11/05 06:35:24;;;;;;;19.97;13.07;;;6.10;99.90;;;;;;5034276;28;20214;-91
2022/11/05 06:37:59;;;;;;;28.27;20.10;;;6.20;99.90;;;;;;5033226;28;20886;-91
2022/11/05 06:40:31;;;;;;;24.43;15.00;;;6.30;99.90;;;;;;5034399;28;20318;-92
2022/11/05 06:43:04;;;;;;;20.60;14.03;;;6.20;99.90;;;;;;5033992;28;20639;-91
2022/11/05 06:45:31;;;;;;;20.73;12.87;;;6.20;99.90;;;;;;5033834;28;20218;-93
2022/11/05 06:47:58;;;;;;;22.93;13.33;;;6.20;99.90;;;;;;5034379;28;20204;-93
2022/11/05 06:50:28;;;;;;;20.50;12.70;;;6.10;99.90;;;;;;5032165;28;20210;-91
2022/11/05 06:53:09;;;;;;;23.30;13.57;;;6.10;99.90;;;;;;5024668;28;20213;-92
2022/11/05 06:55:36;;;;;;;24.70;13.07;;;6.10;99.90;;;;;;5034291;28;20214;-92
2022/11/05 06:58:06;;;;;;;18.53;12.93;;;6.00;99.90;;;;;;5033727;28;20680;-93
2022/11/05 07:00:39;;;;;;;22.20;12.70;;;6.00;99.90;;;;;;5034142;28;20211;-92
2022/11/05 07:03:08;;;;;;;19.13;12.70;;;6.00;99.90;;;;;;5033910;28;20213;-91
2022/11/05 07:05:43;;;;;;;21.93;12.67;;;6.10;99.90;;;;;;5033872;28;20211;-92
2022/11/05 07:08:12;;;;;;;27.92;18.00;;;6.10;99.90;;;;;;5024818;28;20424;-91
2022/11/05 07:10:48;;;;;;;24.17;13.93;;;6.10;99.90;;;;;;5030223;28;20211;-89
2022/11/05 07:13:15;;;;;;;24.97;13.10;;;6.10;99.90;;;;;;5034171;28;20310;-90
2022/11/05 07:15:50;;;;;;;14.83;11.90;;;6.10;99.90;;;;;;5034006;28;20235;-89
2022/11/05 07:18:29;;;;;;;21.60;12.87;;;6.10;99.90;;;;;;5034468;28;20203;-90
2022/11/05 07:21:00;;;;;;;20.97;12.33;;;6.10;99.90;;;;;;5035406;28;20569;-92
2022/11/05 07:23:28;;;;;;;21.03;12.20;;;6.20;99.90;;;;;;5035520;28;20218;-90
2022/11/05 07:25:55;;;;;;;18.63;11.47;;;6.20;99.90;;;;;;5034920;28;20200;-91
2022/11/05 07:28:25;;;;;;;25.50;11.93;;;6.20;99.90;;;;;;5035168;28;20202;-92
2022/11/05 07:30:52;;;;;;;24.80;12.23;;;6.20;99.90;;;;;;5034552;28;20226;-90
2022/11/05 07:33:19;;;;;;;21.33;12.40;;;6.20;99.90;;;;;;5016581;28;20203;-91
2022/11/05 07:35:46;;;;;;;21.23;12.37;;;6.20;99.90;;;;;;5033913;28;20641;-90
2022/11/05 07:38:15;;;;;;;24.10;12.87;;;6.20;99.90;;;;;;5033843;28;20653;-90
2022/11/05 07:40:42;;;;;;;19.87;11.07;;;6.10;99.90;;;;;;5032929;28;20261;-91
2022/11/05 07:43:09;;;;;;;24.03;12.40;;;6.20;99.90;;;;;;5033503;28;20203;-90
2022/11/05 07:45:36;;;;;;;24.23;12.63;;;6.10;99.90;;;;;;5032350;28;20234;-91
2022/11/05 07:48:05;;;;;;;23.63;12.57;;;6.10;99.90;;;;;;5032498;28;20207;-91
2022/11/05 07:50:34;;;;;;;22.17;12.17;;;6.20;99.90;;;;;;5032970;28;20693;-91
2022/11/05 07:53:01;;;;;;;20.50;11.93;;;6.20;99.90;;;;;;5033743;28;20200;-92
2022/11/05 07:55:30;;;;;;;23.63;12.37;;;6.20;99.90;;;;;;5032870;28;20281;-93
2022/11/05 07:57:56;;;;;;;19.97;12.07;;;6.40;99.90;;;;;;5033697;28;20206;-91
2022/11/05 08:00:26;;;;;;;23.00;11.37;;;6.40;99.90;;;;;;5033217;28;20199;-91
2022/11/05 08:03:01;;;;;;;22.43;11.10;;;6.50;99.90;;;;;;5034163;28;20199;-92
2022/11/05 08:05:28;;;;;;;23.92;13.73;;;6.60;99.90;;;;;;5036678;28;20503;-91
2022/11/05 08:07:56;;;;;;;18.73;11.93;;;6.70;99.90;;;;;;5019379;28;20203;-91
2022/11/05 08:10:24;;;;;;;17.40;9.70;;;6.70;99.90;;;;;;5036345;28;20579;-92
2022/11/05 08:12:52;;;;;;;16.27;10.97;;;6.70;99.90;;;;;;5037162;28;20207;-93
2022/11/05 08:15:19;;;;;;;16.00;10.70;;;6.70;99.90;;;;;;5036073;28;20209;-91
2022/11/05 08:17:46;;;;;;;16.20;9.80;;;6.70;99.90;;;;;;5037210;28;20222;-93
2022/11/05 08:20:14;;;;;;;16.70;9.97;;;6.90;99.90;;;;;;5037012;28;20534;-92
2022/11/05 08:22:43;;;;;;;17.43;9.63;;;7.00;99.90;;;;;;5036431;28;20214;-90
2022/11/05 08:25:10;;;;;;;15.77;8.80;;;7.20;99.90;;;;;;5036766;28;20238;-93
2022/11/05 08:27:37;;;;;;;12.97;9.30;;;7.10;99.90;;;;;;5036192;28;20214;-90
2022/11/05 08:30:07;;;;;;;16.47;9.57;;;7.20;99.90;;;;;;5036679;28;20215;-92
2022/11/05 08:32:34;;;;;;;18.90;9.80;;;7.20;99.90;;;;;;5036363;28;20219;-92
2022/11/05 08:35:01;;;;;;;17.47;9.53;;;7.20;99.90;;;;;;5036644;28;20199;-92
2022/11/05 08:37:28;;;;;;;13.50;8.90;;;7.30;99.90;;;;;;5036338;28;20211;-92
2022/11/05 08:39:55;;;;;;;12.67;8.47;;;7.50;99.90;;;;;;5036128;28;20195;-93
2022/11/05 08:42:22;;;;;;;15.07;8.67;;;7.60;99.90;;;;;;5038044;28;20213;-92
2022/11/05 08:44:49;;;;;;;12.07;9.20;;;7.60;99.90;;;;;;5038581;28;20222;-91
2022/11/05 08:47:22;;;;;;;12.57;8.93;;;7.60;99.90;;;;;;5022695;28;20207;-92
2022/11/05 08:49:49;;;;;;;12.43;8.23;;;7.80;99.90;;;;;;5041728;28;20193;-92
2022/11/05 08:52:18;;;;;;;11.07;8.07;;;7.80;99.90;;;;;;5035987;28;20203;-92
2022/11/05 08:54:45;;;;;;;15.80;8.10;;;7.90;99.90;;;;;;5035282;28;20205;-93
2022/11/05 08:57:11;;;;;;;15.90;8.20;;;8.00;99.90;;;;;;5035495;28;20597;-92
2022/11/05 08:59:39;;;;;;;9.57;7.33;;;8.20;99.90;;;;;;5034743;28;20199;-92
2022/11/05 09:02:06;;;;;;;9.90;7.70;;;8.20;99.90;;;;;;5035053;28;20202;-93
2022/11/05 09:04:34;;;;;;;12.23;6.93;;;8.20;99.90;;;;;;5035434;28;20223;-92
2022/11/05 09:07:01;;;;;;;12.23;7.30;;;8.30;99.90;;;;;;5034779;28;20661;-92
2022/11/05 09:09:28;;;;;;;12.50;7.50;;;8.30;99.90;;;;;;5033270;28;20187;-92
2022/11/05 09:11:55;;;;;;;10.93;6.73;;;8.40;99.90;;;;;;5035294;28;20210;-90
2022/11/05 09:14:25;;;;;;;9.37;7.10;;;8.40;99.90;;;;;;5034856;28;20658;-89
2022/11/05 09:16:55;;;;;;;10.00;7.00;;;8.40;99.90;;;;;;5037128;28;20278;-93
2022/11/05 09:19:25;;;;;;;10.40;6.53;;;8.40;99.90;;;;;;5040643;28;20219;-96
2022/11/05 09:21:53;;;;;;;11.27;6.37;;;8.50;99.90;;;;;;5039570;28;20582;-95
2022/11/05 09:24:20;;;;;;;10.60;6.50;;;8.60;99.90;;;;;;5039806;28;20233;-94
2022/11/05 09:26:47;;;;;;;10.07;6.60;;;8.60;99.90;;;;;;5021262;28;20203;-96
2022/11/05 09:29:16;;;;;;;11.93;6.67;;;8.60;99.90;;;;;;5040926;28;20210;-94
2022/11/05 09:31:43;;;;;;;11.90;6.07;;;8.70;99.90;;;;;;5038466;28;20221;-96
2022/11/05 09:34:09;;;;;;;9.67;6.50;;;8.80;99.90;;;;;;5038810;28;20651;-95
2022/11/05 09:36:36;;;;;;;6.27;5.60;;;8.80;99.90;;;;;;5041948;28;20214;-94
2022/11/05 09:39:08;;;;;;;8.77;6.13;;;8.60;99.90;;;;;;5042746;28;20654;-95
2022/11/05 09:41:40;;;;;;;10.40;6.30;;;8.60;99.90;;;;;;5043782;28;20290;-95
2022/11/05 09:44:13;;;;;;;11.60;6.93;;;8.70;99.90;;;;;;5042173;28;20195;-94
2022/11/05 09:46:47;;;;;;;12.70;6.40;;;8.90;99.90;;;;;;5041907;28;20261;-95
2022/11/05 09:49:26;;;;;;;10.83;6.23;;;8.90;99.90;;;;;;5042982;28;20211;-95
2022/11/05 09:51:56;;;;;;;10.80;6.20;;;9.00;99.90;;;;;;5040311;28;20760;-96
2022/11/05 09:54:32;;;;;;;6.50;5.40;;;9.10;99.90;;;;;;5045321;28;20199;-92
2022/11/05 09:57:03;;;;;;;8.07;4.93;;;9.10;99.90;;;;;;5046880;28;20211;-93
2022/11/05 09:59:37;;;;;;;8.03;5.30;;;9.30;99.90;;;;;;5046105;28;20211;-93
2022/11/05 10:02:12;;;;;;;8.90;5.80;;;9.20;99.90;;;;;;5047369;28;20214;-94
2022/11/05 10:04:40;;;;;;;10.70;5.67;;;9.20;99.90;;;;;;5049420;28;20270;-95
2022/11/05 10:07:13;;;;;;;8.37;5.50;;;9.20;99.90;;;;;;5049885;28;20195;-95
2022/11/05 10:09:46;;;;;;;12.20;6.03;;;9.20;99.90;;;;;;5042504;28;20203;-95
2022/11/05 10:12:29;;;;;;;6.63;5.70;;;9.30;99.90;;;;;;5042167;28;20211;-96
2022/11/05 10:15:05;;;;;;;8.20;4.77;;;9.40;99.90;;;;;;5034458;28;20218;-87
2022/11/05 10:17:35;;;;;;;8.57;5.17;;;9.50;99.90;;;;;;5037427;28;20211;-95
2022/11/05 10:20:13;;;;;;;8.20;5.03;;;9.60;99.90;;;;;;5048403;28;20263;-94
2022/11/05 10:22:41;;;;;;;5.97;4.47;;;9.60;99.90;;;;;;5042408;28;20203;-94
2022/11/05 10:25:22;;;;;;;7.43;4.50;;;9.60;99.90;;;;;;5045228;28;20223;-96
2022/11/05 10:28:00;;;;;;;6.53;4.47;;;9.80;99.90;;;;;;5045311;28;20207;-93
2022/11/05 10:30:28;;;;;;;6.73;4.37;;;9.90;99.90;;;;;;5045823;28;20213;-94
2022/11/05 10:33:05;;;;;;;7.30;4.83;;;10.00;99.90;;;;;;5045562;28;20211;-93
2022/11/05 10:35:44;;;;;;;5.13;4.33;;;10.10;99.90;;;;;;5046286;28;20236;-94
2022/11/05 10:38:14;;;;;;;9.82;5.20;;;10.00;99.90;;;;;;5028109;28;20427;-95
2022/11/05 10:40:53;;;;;;;8.30;4.53;;;10.20;99.90;;;;;;5036658;28;20210;-95
2022/11/05 10:43:28;;;;;;;4.63;4.00;;;10.20;99.90;;;;;;5036635;28;20209;-95
2022/11/05 10:46:05;;;;;;;8.63;4.63;;;10.30;99.90;;;;;;5035964;28;20231;-94
2022/11/05 10:48:46;;;;;;;8.10;4.63;;;10.40;99.90;;;;;;5035462;28;20214;-93
2022/11/05 10:51:13;;;;;;;9.43;5.70;;;10.50;99.90;;;;;;5035087;28;20686;-93
2022/11/05 10:53:46;;;;;;;5.27;3.93;;;10.50;99.90;;;;;;5039076;28;20259;-92
2022/11/05 10:56:32;;;;;;;6.10;4.00;;;10.40;99.90;;;;;;5041936;28;20234;-94
2022/11/05 10:59:02;;;;;;;6.37;3.90;;;10.40;99.90;;;;;;5040886;28;20211;-93
2022/11/05 11:01:33;;;;;;;6.07;4.20;;;10.30;99.90;;;;;;5038808;28;20613;-94
2022/11/05 11:04:15;;;;;;;5.50;3.83;;;10.30;99.90;;;;;;5039571;28;20631;-94
2022/11/05 11:06:48;;;;;;;5.50;4.00;;;10.50;99.90;;;;;;5041007;28;20247;-94
2022/11/05 11:09:24;;;;;;;7.50;4.70;;;10.60;99.90;;;;;;5040421;28;20202;-93
2022/11/05 11:12:03;;;;;;;7.80;4.07;;;10.70;99.90;;;;;;5035790;28;20230;-93
2022/11/05 11:14:30;;;;;;;5.30;4.13;;;10.70;99.90;;;;;;5022529;28;20195;-92
2022/11/05 11:17:17;;;;;;;6.23;4.17;;;10.70;99.90;;;;;;5035455;28;20227;-93
2022/11/05 11:19:46;;;;;;;7.57;4.20;;;10.80;99.90;;;;;;5025077;28;20720;-92
2022/11/05 11:22:20;;;;;;;7.73;4.47;;;11.00;99.90;;;;;;5035728;28;20298;-93
2022/11/05 11:24:55;;;;;;;5.73;3.93;;;11.00;99.90;;;;;;5036179;28;20199;-93
2022/11/05 11:27:26;;;;;;;5.57;4.23;;;11.10;99.90;;;;;;5035716;28;20207;-93
2022/11/05 11:29:59;;;;;;;6.37;4.17;;;11.00;99.90;;;;;;5035358;28;20203;-93
2022/11/05 11:32:31;;;;;;;5.83;4.70;;;11.10;99.90;;;;;;5034897;28;20219;-94
2022/11/05 11:34:59;;;;;;;8.37;4.33;;;11.10;99.90;;;;;;5034947;28;20214;-93
2022/11/05 11:37:29;;;;;;;10.53;4.63;;;11.00;99.90;;;;;;5038813;28;20211;-94
2022/11/05 11:39:59;;;;;;;6.23;4.20;;;11.20;99.90;;;;;;5050341;28;20212;-93
2022/11/05 11:42:38;;;;;;;6.23;4.13;;;11.10;99.90;;;;;;5047388;28;20207;-94
2022/11/05 11:45:19;;;;;;;5.57;4.30;;;11.10;99.90;;;;;;5048682;28;20302;-95
2022/11/05 11:47:51;;;;;;;6.70;3.77;;;11.10;99.90;;;;;;5051849;28;20203;-94
2022/11/05 11:50:35;;;;;;;7.93;4.40;;;11.20;99.90;;;;;;5049590;28;20208;-95
2022/11/05 11:53:27;;;;;;;4.97;4.37;;;11.30;99.90;;;;;;5046932;28;20202;-94
2022/11/05 11:56:01;;;;;;;6.77;3.90;;;11.40;99.90;;;;;;5030223;28;20200;-93
2022/11/05 11:58:42;;;;;;;7.23;4.17;;;11.30;99.90;;;;;;5039190;28;20211;-96
2022/11/05 12:01:37;;;;;;;9.50;4.97;;;11.30;99.90;;;;;;5041988;28;20213;-94
2022/11/05 12:04:19;;;;;;;6.73;4.70;;;11.20;99.90;;;;;;5039605;28;20212;-95
2022/11/05 12:06:55;;;;;;;8.43;4.50;;;11.20;99.90;;;;;;5039884;28;20680;-93
2022/11/05 12:09:33;;;;;;;8.23;4.23;;;11.10;99.90;;;;;;5045724;28;20208;-93
2022/11/05 12:12:07;;;;;;;6.87;4.40;;;11.10;99.90;;;;;;5046109;28;20200;-90
2022/11/05 12:14:46;;;;;;;10.03;4.40;;;11.10;99.90;;;;;;5040119;28;20621;-93
2022/11/05 12:17:33;;;;;;;5.83;4.30;;;11.10;99.90;;;;;;5037228;28;20711;-92
2022/11/05 12:20:23;;;;;;;8.07;4.90;;;11.20;99.90;;;;;;5019591;28;20215;-88
2022/11/05 12:23:26;;;;;;;7.40;4.23;;;11.20;99.90;;;;;;5021998;28;20215;-94
2022/11/05 12:26:02;;;;;;;6.00;4.63;;;11.40;99.90;;;;;;5028221;28;20236;-93
2022/11/05 12:28:46;;;;;;;9.17;4.97;;;11.40;99.90;;;;;;5037412;28;20204;-93
2022/11/05 12:31:32;;;;;;;7.67;4.63;;;11.50;99.90;;;;;;5036780;28;20212;-91
2022/11/05 12:34:13;;;;;;;6.83;4.00;;;11.70;99.90;;;;;;5016176;28;20220;-94
2022/11/05 12:37:02;;;;;;;7.37;4.43;;;11.70;99.90;;;;;;5033237;28;20224;-93
2022/11/05 12:39:44;;;;;;;7.17;4.53;;;11.80;99.90;;;;;;5038196;28;20263;-93
2022/11/05 12:42:29;;;;;;;4.17;3.73;;;11.70;99.90;;;;;;5037884;28;20201;-95
2022/11/05 12:45:29;;;;;;;9.50;4.10;;;11.80;99.90;;;;;;5037009;28;20205;-94
2022/11/05 12:48:07;;;;;;;8.17;4.10;;;11.80;99.90;;;;;;5028885;28;20204;-95
2022/11/05 12:50:41;;;;;;;8.73;4.37;;;11.80;99.90;;;;;;5043929;28;20201;-96
2022/11/05 12:53:29;;;;;;;7.37;4.23;;;11.70;99.90;;;;;;5039148;28;20214;-92
2022/11/05 12:56:04;;;;;;;9.30;4.43;;;11.80;99.90;;;;;;5037082;28;20228;-91
2022/11/05 12:58:41;;;;;;;6.93;4.53;;;11.70;99.90;;;;;;5036696;28;20633;-90
2022/11/05 13:01:14;;;;;;;8.57;4.67;;;11.80;99.90;;;;;;5035899;28;20656;-90
2022/11/05 13:03:53;;;;;;;8.80;4.37;;;11.80;99.90;;;;;;5036361;28;20213;-91
2022/11/05 13:06:23;;;;;;;5.67;4.47;;;11.90;99.90;;;;;;5036730;28;20236;-89
2022/11/05 13:09:00;;;;;;;6.70;4.10;;;12.00;99.90;;;;;;5040236;28;20214;-95
2022/11/05 13:11:35;;;;;;;6.60;4.20;;;12.00;99.90;;;;;;5048006;28;20293;-95
2022/11/05 13:14:09;;;;;;;7.43;4.60;;;12.10;99.90;;;;;;5049214;28;20189;-92
2022/11/05 13:16:43;;;;;;;6.20;4.93;;;12.10;99.90;;;;;;5047230;28;20263;-94
2022/11/05 13:19:18;;;;;;;6.13;4.63;;;12.20;99.90;;;;;;5049120;28;20207;-93
2022/11/05 13:21:50;;;;;;;7.53;4.27;;;12.40;99.90;;;;;;5042569;28;20205;-92
2022/11/05 13:24:21;;;;;;;9.47;5.00;;;12.50;99.90;;;;;;5037885;28;20673;-92
2022/11/05 13:26:55;;;;;;;8.57;5.20;;;12.30;99.90;;;;;;5036160;28;20234;-91
2022/11/05 13:29:27;;;;;;;8.20;4.87;;;12.40;99.90;;;;;;5034960;28;20225;-90
2022/11/05 13:31:58;;;;;;;7.30;4.67;;;12.50;99.90;;;;;;5035735;28;20210;-91
2022/11/05 13:34:26;;;;;;;8.53;4.67;;;12.50;99.90;;;;;;5036505;28;20199;-90
2022/11/05 13:39:46;;;;;;;7.20;4.70;;;12.60;99.90;;;;;;5036378;28;20253;-91
2022/11/05 13:43:03;;;;;;;7.20;4.63;;;12.60;99.90;;;;;;5041343;28;20211;-95
2022/11/05 13:46:25;;;;;;;8.25;5.55;;;12.60;99.90;;;;;;5032454;28;20442;-94
2022/11/05 13:49:34;;;;;;;6.77;4.80;;;12.50;99.90;;;;;;5023372;28;20215;-96
2022/11/05 13:52:21;;;;;;;7.60;4.53;;;12.50;99.90;;;;;;5026960;28;20207;-93
2022/11/05 13:55:30;;;;;;;9.80;5.00;;;12.50;99.90;;;;;;5044319;28;20187;-94
2022/11/05 13:58:33;;;;;;;7.73;5.03;;;12.50;99.90;;;;;;5034367;28;20709;-94
2022/11/05 14:01:30;;;;;;;8.47;4.80;;;12.60;99.90;;;;;;5031322;28;20190;-94
2022/11/05 14:03:57;;;;;;;9.43;4.60;;;12.60;99.90;;;;;;5047623;28;20206;-94
2022/11/05 14:06:43;;;;;;;7.90;5.33;;;12.40;99.90;;;;;;5043081;28;20611;-94